HOURLY OBS INDEX

043

Maranoa

ROMA AIRPORT

Site: 043091
Alt: 307.4m
2km NNW of ROMA


  Time     Wind        Temp  DP   Baro     Rain since   Rain past  Vis(m), Cloud(base in m), Weather
  local        km/h                         9am  last   hr   10m    
Tue 14:00  WNW  9/ 17  34.2  8.8  1010.9    0.0   0.0   0.0   0.0   10000 
Tue 14:30    S  7/ 20  33.6  7.6  1010.4    0.0   0.0   0.0   0.0   10000|SC3000 
Tue 14:30    S  7/ 20  33.6  7.6  1010.4    0.0   0.0  ----   0.0   10000|SC3000 
Tue 15:00   SW 19/ 32  34.8  6.2  1009.9    0.0   0.0   0.0   0.0   10000 
Tue 15:00   SW 19/ 32  34.8  6.2  1009.9    0.0   0.0  ----   0.0   10000 
Tue 15:30   SW 20/ 33  34.6  6.0  1009.8    0.0   0.0   0.0   0.0   10000 
Tue 16:00    S 19/ 22  34.4  5.8  1009.9    0.0   0.0   0.0   0.0   10000 
Tue 16:30    S 17/ 28  34.3  4.0  1009.9    0.0   0.0   0.0   0.0   10000 
Tue 17:00  SSW 17/ 22  33.9  3.7  1009.9    0.0   0.0   0.0   0.0   10000 
Tue 17:30  SSW 17/ 24  33.3  5.0  1010.1    0.0   0.0   0.0   0.0   10000 
Tue 18:00    S 13/ 20  31.9  6.2  1010.5    0.0   0.0   0.0   0.0   10000 
Tue 18:30  SSE 15/ 17  29.6  6.3  1010.7    0.0   0.0   0.0   0.0   10000 
Tue 18:30  SSE 15/ 17  29.6  6.3  1010.7    0.0   0.0  ----   0.0   10000 
Tue 18:30  SSE 15/ 17  29.6  6.3  1010.7    0.0   0.0  ----   0.0   10000 
Tue 18:30  SSE 15/ 17  29.6  6.3  1010.7    0.0   0.0  ----   0.0   10000 
Tue 19:00  SSE 13/ 15  28.0  7.8  1011.0    0.0   0.0   0.0   0.0   10000 
Tue 19:30   SE 11/ 13  27.0  8.0  1011.4    0.0   0.0   0.0   0.0   10000 

ST GEORGE AIRPORT

Site: 043109
Alt: 198.5m
4km SSE of ST GEORGE


  Time     Wind        Temp  DP   Baro     Rain since   Rain past  Vis(m), Cloud(base in m), Weather
  local        km/h                         9am  last   hr   10m    
Tue 14:00   SW 24/ 41  34.9  3.5  1010.0    0.0   0.0   0.0   0.0   10000|SC3000 
Tue 14:30  SSW 13/ 15  34.2  1.9  1009.7    0.0   0.0   0.0   0.0   10000|SC3000 
Tue 14:30  SSW 13/ 15  34.2  1.9  1009.7    0.0   0.0  ----   0.0   10000|SC3000 
Tue 15:00   SW 19/ 30  34.9  2.4  1009.3    0.0   0.0   0.0   0.0   10000|SC3300 
Tue 15:00   SW 19/ 30  34.9  2.4  1009.3    0.0   0.0  ----   0.0   10000|SC3300 
Tue 15:30  SSW 17/ 22  34.9  1.3  1009.1    0.0   0.0   0.0   0.0   10000 
Tue 16:00    W 20/ 26  34.9  1.3  1009.1    0.0   0.0   0.0   0.0   10000 
Tue 16:30   SW 19/ 28  35.2  2.6  1009.1    0.0   0.0   0.0   0.0   10000|SC3450 
Tue 17:00   SW 13/ 20  34.8  2.3  1009.2    0.0   0.0   0.0   0.0   10000|SC3450 
Tue 17:30  SSW 19/ 28  33.9  2.7  1009.1    0.0   0.0   0.0   0.0   10000 
Tue 18:00   SW 17/ 24  33.2  2.1  1009.3    0.0   0.0   0.0   0.0   10000 
Tue 18:30   SW 11/ 13  31.1  2.3  1009.5    0.0   0.0   0.0   0.0   10000 
Tue 18:30   SW 11/ 13  31.1  2.3  1009.5    0.0   0.0  ----   0.0   10000 
Tue 18:30   SW 11/ 13  31.1  2.3  1009.5    0.0   0.0  ----   0.0   10000 
Tue 18:30   SW 11/ 13  31.1  2.3  1009.5    0.0   0.0  ----   0.0   10000 
Tue 19:00    S  9/ 11  30.4  2.6  1009.9    0.0   0.0   0.0   0.0   10000 
Tue 19:30    S  9/  9  29.6  2.0  1010.4    0.0   0.0   0.0   0.0   10000